Time;durP1;ratioP1;P1;durP2;ratioP2;P2;SDS_P1;SDS_P2;PMS_P1;PMS_P2;Temp;Humidity;BMP_temperature;BMP_pressure;BME280_temperature;BME280_humidity;BME280_pressure;Samples;Min_cycle;Max_cycle;Signal;HPM_P1;HPM_P2
2020/12/29 00:01:40;;;;;;;4.15;2.85;;;;;;;3.39;85.28;96954.84;5024617;28;20583;-81
2020/12/29 00:04:08;;;;;;;5.65;3.50;;;;;;;3.39;85.42;96954.03;5024540;28;20055;-82
2020/12/29 00:06:46;;;;;;;5.50;3.17;;;;;;;3.41;85.69;96954.75;5029208;28;20053;-81
2020/12/29 00:09:14;;;;;;;3.53;2.80;;;;;;;3.39;85.34;96947.00;5015496;28;20049;-82
2020/12/29 00:11:42;;;;;;;6.05;3.10;;;;;;;3.37;86.11;96953.28;5029104;28;20886;-82
2020/12/29 00:14:09;;;;;;;4.93;2.85;;;;;;;3.39;86.40;96948.78;5028333;28;20053;-81
2020/12/29 00:16:36;;;;;;;4.03;2.78;;;;;;;3.37;86.07;96943.66;5027724;28;20172;-81
2020/12/29 00:19:03;;;;;;;5.15;3.22;;;;;;;3.35;86.46;96953.41;5027980;28;20042;-82
2020/12/29 00:21:29;;;;;;;5.57;3.17;;;;;;;3.31;87.34;96948.50;5027007;28;20068;-82
2020/12/29 00:23:56;;;;;;;4.55;2.80;;;;;;;3.24;86.69;96952.53;5029312;28;20051;-81
2020/12/29 00:26:26;;;;;;;3.78;2.70;;;;;;;3.15;87.11;96954.84;5026627;28;20059;-81
2020/12/29 00:28:53;;;;;;;3.35;2.25;;;;;;;3.18;87.81;96943.31;5025545;28;20052;-82
2020/12/29 00:31:20;;;;;;;3.97;2.10;;;;;;;3.20;87.70;96959.75;5032251;28;20049;-81
2020/12/29 00:33:49;;;;;;;3.25;1.85;;;;;;;3.13;86.81;96950.69;5008338;28;20045;-82
2020/12/29 00:36:16;;;;;;;2.72;2.10;;;;;;;3.11;87.25;96945.56;5008517;28;20053;-81
2020/12/29 00:38:42;;;;;;;4.07;2.15;;;;;;;3.12;87.38;96949.84;5024848;28;20052;-80
2020/12/29 00:41:10;;;;;;;3.30;1.95;;;;;;;3.06;87.30;96950.28;5032966;28;20140;-83
2020/12/29 00:43:39;;;;;;;4.85;2.10;;;;;;;2.99;87.49;96940.38;5019208;28;20058;-80
2020/12/29 00:46:06;;;;;;;4.90;2.55;;;;;;;2.96;88.08;96948.44;5022017;28;20168;-81
2020/12/29 00:48:34;;;;;;;2.67;2.33;;;;;;;2.97;89.04;96935.28;5021453;28;20045;-83
2020/12/29 00:51:12;;;;;;;3.17;2.33;;;;;;;3.01;88.58;96948.94;5028019;28;20049;-84
2020/12/29 00:53:39;;;;;;;3.95;2.70;;;;;;;2.99;88.96;96948.22;5027024;28;20136;-83
2020/12/29 00:56:07;;;;;;;4.63;2.70;;;;;;;3.00;89.38;96955.09;5022998;28;20141;-83
2020/12/29 00:58:35;;;;;;;4.72;2.60;;;;;;;2.95;89.56;96942.38;5022731;28;20141;-84
2020/12/29 01:01:03;;;;;;;4.13;3.00;;;;;;;2.99;89.72;96945.63;5024438;28;20053;-83
2020/12/29 01:03:30;;;;;;;4.78;2.83;;;;;;;3.04;90.13;96957.38;5018319;28;20065;-83
2020/12/29 01:05:56;;;;;;;4.28;2.80;;;;;;;3.05;90.16;96950.38;5025321;28;20053;-82
2020/12/29 01:08:23;;;;;;;3.67;2.60;;;;;;;3.03;89.68;96960.94;5017916;28;20491;-82
2020/12/29 01:10:54;;;;;;;4.75;3.13;;;;;;;3.05;90.06;96966.91;5019644;28;20057;-82
2020/12/29 01:13:21;;;;;;;3.97;3.25;;;;;;;3.02;89.86;96963.66;5024420;28;20055;-81
2020/12/29 01:15:48;;;;;;;4.53;3.05;;;;;;;2.99;89.46;96969.94;5028047;28;20041;-84
2020/12/29 01:18:15;;;;;;;5.22;3.10;;;;;;;2.91;89.30;96972.28;5021377;28;20052;-82
2020/12/29 01:20:41;;;;;;;4.32;3.30;;;;;;;2.83;89.93;96968.56;5023644;28;20342;-82
2020/12/29 01:23:08;;;;;;;6.97;3.45;;;;;;;2.76;90.70;96973.34;5020524;28;20042;-82
2020/12/29 01:25:34;;;;;;;4.65;3.03;;;;;;;2.75;90.82;96971.69;5024589;28;20052;-82
2020/12/29 01:28:00;;;;;;;6.88;3.38;;;;;;;2.74;91.20;96965.63;5022776;28;20054;-83
2020/12/29 01:30:27;;;;;;;5.53;3.22;;;;;;;2.70;91.67;96963.31;5024413;28;20768;-82
2020/12/29 01:32:53;;;;;;;5.07;3.05;;;;;;;2.65;91.16;96965.44;5014038;28;20060;-82
2020/12/29 01:35:19;;;;;;;5.05;3.42;;;;;;;2.65;92.24;96968.88;5025347;28;20053;-82
2020/12/29 01:37:46;;;;;;;5.15;3.58;;;;;;;2.61;92.49;96966.59;5027547;28;20492;-83
2020/12/29 01:40:13;;;;;;;5.85;3.70;;;;;;;2.62;92.79;96966.47;5021856;28;20456;-83
2020/12/29 01:42:41;;;;;;;3.65;3.20;;;;;;;2.61;92.62;96966.59;5024929;28;20067;-83
2020/12/29 01:45:13;;;;;;;5.20;3.30;;;;;;;2.63;93.39;96959.47;5017867;28;20038;-83
2020/12/29 01:47:41;;;;;;;5.38;3.25;;;;;;;2.70;92.91;96968.53;5017533;28;20042;-82
2020/12/29 01:50:11;;;;;;;4.32;3.40;;;;;;;2.68;93.12;96960.81;5019386;28;20108;-82
2020/12/29 01:52:38;;;;;;;4.85;3.65;;;;;;;2.72;92.47;96967.50;5030766;28;20041;-82
2020/12/29 01:55:09;;;;;;;4.78;3.60;;;;;;;2.71;92.61;96965.00;5027653;28;20050;-80
2020/12/29 01:57:37;;;;;;;3.70;3.25;;;;;;;2.75;92.55;96975.13;5021532;28;20099;-81
2020/12/29 02:00:11;;;;;;;5.63;3.28;;;;;;;2.80;92.30;96980.88;5023962;28;20057;-81
2020/12/29 02:02:40;;;;;;;3.70;2.80;;;;;;;2.85;92.83;96977.09;5036724;22;20132;-85
2020/12/29 02:05:07;;;;;;;5.57;3.10;;;;;;;2.88;92.58;96979.50;5012934;28;20046;-84
2020/12/29 02:07:34;;;;;;;7.93;3.30;;;;;;;2.94;92.34;96979.91;5015095;28;20109;-84
2020/12/29 02:10:00;;;;;;;4.70;2.92;;;;;;;2.95;92.97;96973.75;5015086;28;20370;-84
2020/12/29 02:12:30;;;;;;;3.80;3.10;;;;;;;2.97;92.46;96982.31;5015731;28;20112;-84
2020/12/29 02:14:58;;;;;;;3.90;2.90;;;;;;;2.98;92.02;96983.16;5015376;28;20046;-84
2020/12/29 02:17:29;;;;;;;4.28;3.25;;;;;;;2.92;91.43;96979.19;5014917;28;20046;-84
2020/12/29 02:19:55;;;;;;;3.58;3.10;;;;;;;2.87;92.00;96983.03;5014675;28;20053;-84
2020/12/29 02:22:24;;;;;;;5.18;3.55;;;;;;;2.86;92.55;96976.97;5014295;28;20132;-84
2020/12/29 02:24:52;;;;;;;4.95;3.25;;;;;;;2.91;92.27;96987.97;5015027;28;20457;-84
2020/12/29 02:27:20;;;;;;;5.25;3.30;;;;;;;2.94;92.81;96987.75;5014766;28;20049;-84
2020/12/29 02:29:47;;;;;;;4.10;2.70;;;;;;;2.94;92.65;96982.53;5014799;28;20050;-83
2020/12/29 02:32:14;;;;;;;4.45;3.22;;;;;;;2.97;92.60;96987.53;5014322;28;20189;-84
2020/12/29 02:34:42;;;;;;;4.97;3.30;;;;;;;2.98;92.37;96989.22;5015539;28;20047;-84
2020/12/29 02:37:09;;;;;;;3.50;3.13;;;;;;;2.95;92.04;96976.34;5014591;28;20104;-84
2020/12/29 02:39:39;;;;;;;4.63;3.22;;;;;;;3.01;92.12;96986.34;5015259;28;20073;-85
2020/12/29 02:42:06;;;;;;;3.90;3.17;;;;;;;3.02;92.42;96995.03;5015451;28;20052;-84
2020/12/29 02:44:33;;;;;;;4.18;2.80;;;;;;;3.05;93.08;96995.66;5015423;28;20053;-83
2020/12/29 02:47:00;;;;;;;4.78;3.28;;;;;;;3.06;92.75;96992.09;5014098;28;20050;-83
2020/12/29 02:49:26;;;;;;;7.03;3.42;;;;;;;3.07;92.75;96992.94;5014347;28;20065;-83
2020/12/29 02:51:56;;;;;;;4.93;2.75;;;;;;;3.09;93.03;96991.06;5014586;28;20046;-83
2020/12/29 02:54:26;;;;;;;3.83;2.90;;;;;;;3.08;92.49;96985.00;5015075;28;20050;-83
2020/12/29 02:56:54;;;;;;;5.20;3.00;;;;;;;3.10;92.51;96984.88;5014526;28;20060;-83
2020/12/29 02:59:22;;;;;;;3.88;2.72;;;;;;;3.07;92.40;96982.47;5014202;28;20053;-83
2020/12/29 03:01:48;;;;;;;3.90;3.00;;;;;;;3.06;92.62;96983.41;5014726;28;20089;-83
2020/12/29 03:04:15;;;;;;;4.03;2.65;;;;;;;3.00;92.96;96966.38;5015030;28;20148;-83
2020/12/29 03:06:41;;;;;;;4.38;2.88;;;;;;;3.08;93.31;96985.00;5013588;28;20149;-83
2020/12/29 03:09:08;;;;;;;4.65;3.22;;;;;;;3.07;93.43;96972.03;5013941;28;20551;-83
2020/12/29 03:11:34;;;;;;;3.40;2.90;;;;;;;3.13;93.41;96979.44;5014966;28;20054;-83
2020/12/29 03:14:03;;;;;;;4.65;3.10;;;;;;;3.19;93.38;96979.00;5013894;28;20392;-84
2020/12/29 03:16:30;;;;;;;4.13;3.05;;;;;;;3.26;94.06;96974.16;5021613;28;20136;-83
2020/12/29 03:18:56;;;;;;;4.13;3.13;;;;;;;3.29;93.93;96974.78;5021384;28;20057;-83
2020/12/29 03:21:23;;;;;;;5.68;3.33;;;;;;;3.30;93.23;96978.25;5020987;28;20050;-83
2020/12/29 03:23:50;;;;;;;3.72;2.92;;;;;;;3.34;94.20;96970.03;5022609;28;20062;-83
2020/12/29 03:26:17;;;;;;;5.85;3.28;;;;;;;3.31;93.42;96967.63;5033200;28;20072;-83
2020/12/29 03:28:44;;;;;;;5.22;3.22;;;;;;;3.34;93.60;96975.28;5039716;28;20128;-83
2020/12/29 03:31:12;;;;;;;3.30;2.85;;;;;;;3.34;92.88;96971.81;5039606;28;20046;-83
2020/12/29 03:33:38;;;;;;;4.20;3.33;;;;;;;3.30;94.15;96967.78;5036408;28;20073;-82
2020/12/29 03:36:05;;;;;;;4.45;3.30;;;;;;;3.34;93.80;96974.44;5036648;28;20069;-82
2020/12/29 03:38:31;;;;;;;5.07;3.20;;;;;;;3.37;93.35;96972.44;5033758;28;20049;-81
2020/12/29 03:40:58;;;;;;;4.00;3.10;;;;;;;3.29;93.20;96974.78;5040832;28;20057;-82
2020/12/29 03:43:24;;;;;;;4.20;3.22;;;;;;;3.24;93.58;96984.72;5039861;28;20061;-82
2020/12/29 03:45:51;;;;;;;4.30;3.60;;;;;;;3.29;93.72;96980.00;5023972;28;20133;-82
2020/12/29 03:48:20;;;;;;;3.40;3.10;;;;;;;3.30;94.18;96983.47;5022444;28;20374;-82
2020/12/29 03:50:47;;;;;;;5.00;3.50;;;;;;;3.29;94.62;96987.84;5022519;28;20052;-82
2020/12/29 03:53:14;;;;;;;3.85;3.17;;;;;;;3.30;94.49;96989.53;5021137;28;20042;-82
2020/12/29 03:55:41;;;;;;;4.43;3.10;;;;;;;3.29;94.34;96998.31;5022460;28;20060;-82
2020/12/29 03:58:08;;;;;;;4.20;3.08;;;;;;;3.29;94.26;97000.09;5021842;28;20108;-82
2020/12/29 04:00:36;;;;;;;5.03;3.22;;;;;;;3.28;94.64;96994.03;5023048;28;20057;-82
2020/12/29 04:03:03;;;;;;;3.13;2.83;;;;;;;3.29;94.48;97006.16;5022056;28;20050;-83
2020/12/29 04:05:30;;;;;;;5.15;3.22;;;;;;;3.30;94.38;96991.31;5029727;28;20161;-83
2020/12/29 04:08:00;;;;;;;4.45;3.30;;;;;;;3.26;94.41;96997.69;5031489;28;20058;-82
2020/12/29 04:10:26;;;;;;;3.78;3.20;;;;;;;3.24;94.51;96996.97;5030592;28;20041;-83
2020/12/29 04:12:53;;;;;;;4.70;3.42;;;;;;;3.24;95.05;96999.59;5037626;28;20493;-83
2020/12/29 04:15:19;;;;;;;4.85;3.45;;;;;;;3.31;94.92;97006.03;5040958;28;20089;-83
2020/12/29 04:17:45;;;;;;;4.07;3.33;;;;;;;3.32;94.72;96998.06;5039354;28;20105;-83
2020/12/29 04:20:13;;;;;;;4.20;3.22;;;;;;;3.30;95.28;96991.31;5039793;28;20073;-83
2020/12/29 04:22:41;;;;;;;4.32;3.22;;;;;;;3.30;94.85;96989.53;5028310;28;20053;-83
2020/12/29 04:25:09;;;;;;;4.75;3.03;;;;;;;3.30;94.29;97002.59;5025860;28;20056;-82
2020/12/29 04:27:40;;;;;;;5.75;3.55;;;;;;;3.31;94.67;96990.34;5018771;28;20058;-82
2020/12/29 04:30:08;;;;;;;3.55;3.13;;;;;;;3.31;93.99;96988.56;5017342;28;20064;-82
2020/12/29 04:32:35;;;;;;;4.75;3.45;;;;;;;3.27;94.67;96986.28;5016844;28;20108;-81
2020/12/29 04:35:01;;;;;;;5.00;3.67;;;;;;;3.31;94.81;96992.94;5016986;28;20068;-82
2020/12/29 04:37:28;;;;;;;4.07;3.28;;;;;;;3.32;94.86;96990.22;5017272;28;20081;-82
2020/12/29 04:39:55;;;;;;;5.50;3.70;;;;;;;3.35;94.61;96989.19;5016753;28;20401;-82
2020/12/29 04:42:23;;;;;;;4.30;3.40;;;;;;;3.39;94.64;96988.03;5015603;28;20052;-82
2020/12/29 04:44:51;;;;;;;5.20;3.50;;;;;;;3.41;95.38;97002.66;5016427;28;20404;-82
2020/12/29 04:47:18;;;;;;;4.68;3.67;;;;;;;3.39;95.36;96988.03;5016490;28;20501;-82
2020/12/29 04:49:45;;;;;;;5.97;3.88;;;;;;;3.40;95.59;96989.69;5016362;28;20054;-82
2020/12/29 04:52:12;;;;;;;5.32;3.53;;;;;;;3.44;95.65;96991.97;5017211;28;20050;-83
2020/12/29 04:54:40;;;;;;;5.60;3.67;;;;;;;3.45;95.53;97003.28;5016367;28;20054;-83
2020/12/29 04:57:09;;;;;;;6.63;3.80;;;;;;;3.42;95.84;96996.50;5016439;28;20499;-83
2020/12/29 04:59:36;;;;;;;5.13;3.20;;;;;;;3.46;95.94;96994.50;5016745;28;20054;-82
2020/12/29 05:02:03;;;;;;;5.15;3.38;;;;;;;3.50;95.99;96995.91;5016197;28;20050;-83
2020/12/29 05:04:30;;;;;;;4.05;3.38;;;;;;;3.55;96.56;97006.06;5016498;28;20145;-84
2020/12/29 05:06:58;;;;;;;3.67;2.80;;;;;;;3.53;96.74;97014.84;5016305;28;20413;-84
2020/12/29 05:09:27;;;;;;;4.22;2.97;;;;;;;3.50;96.99;97007.22;5016199;28;20319;-82
2020/12/29 05:11:55;;;;;;;4.03;3.08;;;;;;;3.54;96.89;97007.84;5016350;28;20119;-83
2020/12/29 05:14:23;;;;;;;3.72;3.03;;;;;;;3.55;97.20;97006.91;5016265;28;20084;-82
2020/12/29 05:16:52;;;;;;;3.30;2.88;;;;;;;3.61;97.48;97011.69;5015966;28;20136;-83
2020/12/29 05:19:20;;;;;;;3.22;2.65;;;;;;;3.62;97.04;97018.56;5016213;28;20080;-83
2020/12/29 05:21:47;;;;;;;3.60;2.40;;;;;;;3.70;97.26;97028.50;5016193;28;20404;-82
2020/12/29 05:24:14;;;;;;;2.60;2.10;;;;;;;3.74;97.29;97022.09;5016723;28;20054;-83
2020/12/29 05:26:43;;;;;;;3.33;1.85;;;;;;;3.76;96.76;97033.28;5016437;28;20049;-82
2020/12/29 05:29:11;;;;;;;3.00;1.98;;;;;;;3.75;96.70;97035.06;5015895;28;20132;-83
2020/12/29 05:31:40;;;;;;;1.90;1.80;;;;;;;3.78;96.69;97037.44;5015634;28;20121;-83
2020/12/29 05:34:07;;;;;;;2.75;1.90;;;;;;;3.78;96.85;97047.91;5015406;28;20050;-83
2020/12/29 05:36:38;;;;;;;1.88;1.58;;;;;;;3.70;95.54;97047.63;5014632;28;20057;-83
2020/12/29 05:39:07;;;;;;;2.30;1.30;;;;;;;3.70;95.98;97067.75;5013553;28;20049;-83
2020/12/29 05:41:45;;;;;;;1.45;1.33;;;;;;;3.75;95.77;97066.47;5015612;28;20050;-83
2020/12/29 05:44:32;;;;;;;1.55;1.15;;;;;;;3.74;94.51;97085.72;5015656;28;20072;-83
2020/12/29 05:47:03;;;;;;;1.75;1.10;;;;;;;3.67;94.40;97083.66;5015513;28;20136;-82
2020/12/29 05:49:33;;;;;;;1.20;1.10;;;;;;;3.70;95.18;97091.28;5015462;28;20538;-82
2020/12/29 05:51:59;;;;;;;1.92;1.23;;;;;;;3.69;93.60;97087.84;5015614;28;20141;-84
2020/12/29 05:54:27;;;;;;;2.60;1.17;;;;;;;3.70;93.08;97091.28;5016546;28;20069;-84
2020/12/29 05:56:55;;;;;;;3.08;1.10;;;;;;;3.60;93.05;97093.75;5015607;28;20141;-84
2020/12/29 05:59:21;;;;;;;1.13;1.02;;;;;;;3.67;93.46;97104.59;5015722;28;20140;-85
2020/12/29 06:01:52;;;;;;;1.40;1.05;;;;;;;3.64;93.15;97110.88;5015164;28;20050;-84
2020/12/29 06:04:20;;;;;;;2.40;1.50;;;;;;;3.66;93.22;97121.22;5015234;28;20490;-84
2020/12/29 06:06:48;;;;;;;1.45;1.08;;;;;;;3.61;93.02;97131.22;5014398;28;20466;-84
2020/12/29 06:09:17;;;;;;;1.42;1.33;;;;;;;3.60;92.54;97125.13;5014482;28;20141;-85
2020/12/29 06:11:49;;;;;;;1.88;1.30;;;;;;;3.61;92.11;97137.28;5015378;28;20061;-85
2020/12/29 06:14:20;;;;;;;2.10;1.48;;;;;;;3.59;91.75;97149.63;5014388;28;20056;-84
2020/12/29 06:16:47;;;;;;;1.60;1.30;;;;;;;3.53;91.25;97152.66;5015182;28;20060;-83
2020/12/29 06:19:20;;;;;;;1.60;1.35;;;;;;;3.52;91.40;97167.53;5014818;28;20066;-85
2020/12/29 06:22:00;;;;;;;2.00;1.70;;;;;;;3.43;91.53;97167.34;5015261;28;20109;-85
2020/12/29 06:24:28;;;;;;;2.00;1.80;;;;;;;3.43;92.17;97188.25;5015041;28;20054;-81
2020/12/29 06:27:00;;;;;;;2.58;1.80;;;;;;;3.45;91.83;97187.22;5014911;28;20061;-84
2020/12/29 06:29:42;;;;;;;2.60;1.70;;;;;;;3.45;91.50;97196.84;5014377;28;20061;-84
2020/12/29 06:32:17;;;;;;;1.95;1.67;;;;;;;3.43;91.29;97206.56;5014603;28;20049;-85
2020/12/29 06:34:44;;;;;;;2.88;1.90;;;;;;;3.42;91.97;97218.81;5014952;28;20141;-84
2020/12/29 06:37:24;;;;;;;2.40;2.20;;;;;;;3.39;91.67;97215.56;5014611;28;20141;-83
2020/12/29 06:40:01;;;;;;;4.00;2.20;;;;;;;3.38;91.80;97221.72;5014699;28;20440;-82
2020/12/29 06:42:28;;;;;;;3.80;2.40;;;;;;;3.42;91.60;97236.28;5015474;28;20060;-84
2020/12/29 06:44:56;;;;;;;3.00;2.15;;;;;;;3.36;91.52;97240.13;5017557;28;20132;-83
2020/12/29 06:47:25;;;;;;;2.33;2.13;;;;;;;3.37;92.47;97249.66;5016699;28;20049;-84
2020/12/29 06:49:52;;;;;;;4.57;2.60;;;;;;;3.31;91.76;97229.16;5016489;28;20058;-84
2020/12/29 06:52:29;;;;;;;3.30;2.55;;;;;;;3.36;91.39;97250.59;5016011;28;20522;-84
2020/12/29 06:54:59;;;;;;;2.80;2.60;;;;;;;3.40;91.84;97261.69;5015390;28;20046;-84
2020/12/29 06:57:35;;;;;;;3.95;2.80;;;;;;;3.37;91.64;97267.13;5015830;28;20050;-83
2020/12/29 07:00:10;;;;;;;3.92;2.95;;;;;;;3.38;92.61;97279.28;5016213;28;20080;-84
2020/12/29 07:02:38;;;;;;;3.55;3.22;;;;;;;3.37;91.47;97290.66;5016157;28;20104;-84
2020/12/29 07:05:20;;;;;;;5.00;3.53;;;;;;;3.29;92.02;97287.75;5014705;28;20133;-84
2020/12/29 07:07:54;;;;;;;3.92;3.53;;;;;;;3.22;92.24;97303.00;5014979;28;20385;-84
2020/12/29 07:10:21;;;;;;;4.70;3.60;;;;;;;3.17;92.74;97308.53;5014207;28;20081;-82
2020/12/29 07:12:51;;;;;;;3.90;3.55;;;;;;;3.12;92.98;97305.41;5013536;28;20439;-83
2020/12/29 07:15:23;;;;;;;5.05;4.00;;;;;;;3.14;93.10;97313.97;5014784;28;20056;-84
2020/12/29 07:18:00;;;;;;;4.60;4.00;;;;;;;3.19;93.36;97321.50;5015174;28;20056;-86
2020/12/29 07:20:34;;;;;;;4.35;3.55;;;;;;;3.18;92.28;97325.88;5015056;28;20198;-83
2020/12/29 07:23:08;;;;;;;5.82;4.03;;;;;;;3.22;92.70;97338.75;5013980;28;20084;-84
2020/12/29 07:25:36;;;;;;;7.07;4.13;;;;;;;3.23;92.82;97348.28;5014725;28;20491;-85
2020/12/29 07:28:07;;;;;;;5.32;3.70;;;;;;;3.19;93.11;97347.63;5014509;28;20136;-85
2020/12/29 07:30:34;;;;;;;4.07;3.55;;;;;;;3.20;92.30;97364.16;5014088;28;20050;-84
2020/12/29 07:33:06;;;;;;;4.90;3.60;;;;;;;3.17;92.70;97368.66;5014049;28;20064;-84
2020/12/29 07:35:39;;;;;;;4.60;3.35;;;;;;;3.18;92.56;97379.94;5013360;28;20050;-84
2020/12/29 07:38:14;;;;;;;5.20;3.42;;;;;;;3.18;92.74;97387.81;5013785;28;20053;-84
2020/12/29 07:40:41;;;;;;;6.03;3.20;;;;;;;3.27;92.40;97391.59;5013758;28;20053;-85
2020/12/29 07:43:08;;;;;;;4.57;3.38;;;;;;;3.27;91.76;97399.47;5014127;28;20056;-85
2020/12/29 07:45:36;;;;;;;5.72;3.42;;;;;;;3.26;91.97;97401.22;5015031;28;20054;-84
2020/12/29 07:48:03;;;;;;;4.57;3.30;;;;;;;3.28;92.03;97416.81;5014631;28;20041;-85
2020/12/29 07:50:31;;;;;;;3.95;3.40;;;;;;;3.25;92.36;97423.09;5013493;28;20053;-85
2020/12/29 07:53:03;;;;;;;4.72;3.17;;;;;;;3.26;92.34;97429.16;5016429;28;20077;-85
2020/12/29 07:55:30;;;;;;;4.68;3.30;;;;;;;3.30;92.41;97431.47;5018869;28;20053;-84
2020/12/29 07:58:01;;;;;;;6.65;3.20;;;;;;;3.29;92.39;97442.03;5024226;28;20034;-84
2020/12/29 08:00:27;;;;;;;4.50;3.35;;;;;;;3.29;92.39;97447.28;5032574;28;20042;-83
2020/12/29 08:02:54;;;;;;;4.07;3.20;;;;;;;3.29;91.93;97453.34;5028301;28;20520;-84
2020/12/29 08:05:22;;;;;;;4.75;3.00;;;;;;;3.27;92.01;97464.84;5021279;28;20060;-82
2020/12/29 08:08:09;;;;;;;3.90;2.92;;;;;;;3.28;92.12;97467.34;5019938;28;20076;-85
2020/12/29 08:10:37;;;;;;;3.95;3.08;;;;;;;3.36;92.82;97472.06;5017648;28;20060;-84
2020/12/29 08:13:06;;;;;;;3.05;2.58;;;;;;;3.39;91.77;97479.72;5017574;28;20077;-84
2020/12/29 08:15:41;;;;;;;3.35;2.58;;;;;;;3.46;91.32;97483.66;5016789;28;20488;-83
2020/12/29 08:18:16;;;;;;;3.40;2.72;;;;;;;3.44;91.11;97488.13;5018141;28;20050;-83
2020/12/29 08:20:50;;;;;;;3.83;2.40;;;;;;;3.41;91.64;97493.56;5016835;28;20492;-84
2020/12/29 08:23:21;;;;;;;4.70;2.53;;;;;;;3.43;91.32;97502.16;5017576;28;20045;-84
2020/12/29 08:25:57;;;;;;;3.63;2.28;;;;;;;3.42;91.85;97510.94;5017450;28;20054;-83
2020/12/29 08:28:28;;;;;;;3.78;2.08;;;;;;;3.45;90.66;97522.03;5017208;28;20046;-84
2020/12/29 08:30:56;;;;;;;3.42;2.00;;;;;;;3.46;90.94;97531.53;5017455;28;20053;-85
2020/12/29 08:33:24;;;;;;;4.40;1.95;;;;;;;3.48;90.65;97536.69;5016710;28;20061;-85
2020/12/29 08:35:53;;;;;;;4.22;2.10;;;;;;;3.46;90.68;97546.44;5017524;28;20057;-85
2020/12/29 08:38:35;;;;;;;2.38;1.83;;;;;;;3.51;90.71;97552.19;5018200;28;20054;-84
2020/12/29 08:41:04;;;;;;;1.98;1.55;;;;;;;3.57;90.86;97557.03;5016781;28;20132;-84
2020/12/29 08:43:51;;;;;;;2.75;1.70;;;;;;;3.61;90.39;97578.63;5017530;28;20454;-85
2020/12/29 08:46:23;;;;;;;1.75;1.60;;;;;;;3.62;89.95;97575.88;5017949;28;20052;-84
2020/12/29 08:49:01;;;;;;;2.78;1.60;;;;;;;3.62;90.14;97591.56;5017333;28;20053;-84
2020/12/29 08:51:38;;;;;;;2.88;1.60;;;;;;;3.67;89.98;97592.13;5016734;28;20061;-84
2020/12/29 08:54:10;;;;;;;1.75;1.42;;;;;;;3.79;88.60;97603.59;5016395;28;20165;-83
2020/12/29 08:56:37;;;;;;;2.67;1.50;;;;;;;3.78;88.03;97607.97;5016405;28;20046;-85
2020/12/29 08:59:13;;;;;;;1.67;1.58;;;;;;;3.78;88.65;97613.22;5016156;28;20046;-83
2020/12/29 09:01:42;;;;;;;2.33;1.50;;;;;;;3.84;88.18;97620.69;5016379;28;20140;-83
2020/12/29 09:04:30;;;;;;;1.67;1.50;;;;;;;3.86;88.34;97628.44;5017746;28;20511;-83
2020/12/29 09:07:07;;;;;;;1.50;1.40;;;;;;;3.88;88.50;97639.66;5016667;28;20045;-83
2020/12/29 09:09:35;;;;;;;1.80;1.30;;;;;;;3.85;88.63;97643.31;5016539;28;20054;-83
2020/12/29 09:12:10;;;;;;;1.50;1.40;;;;;;;3.87;89.02;97646.69;5015947;28;20056;-83
2020/12/29 09:14:38;;;;;;;1.98;1.38;;;;;;;3.92;88.99;97656.88;5015744;28;20046;-82
2020/12/29 09:17:07;;;;;;;2.17;1.63;;;;;;;3.94;88.31;97649.72;5016030;28;20061;-82
2020/12/29 09:19:34;;;;;;;2.08;1.50;;;;;;;3.97;88.29;97669.66;5015609;28;20144;-82
2020/12/29 09:22:05;;;;;;;2.00;1.30;;;;;;;4.04;88.18;97676.19;5016659;28;20489;-82
2020/12/29 09:24:32;;;;;;;1.73;1.55;;;;;;;4.06;87.30;97684.78;5016401;28;20054;-82
2020/12/29 09:26:59;;;;;;;1.98;1.45;;;;;;;4.07;87.47;97695.16;5015776;28;20064;-82
2020/12/29 09:29:31;;;;;;;2.33;1.50;;;;;;;4.13;87.51;97713.09;5015556;28;20053;-83
2020/12/29 09:31:58;;;;;;;2.55;1.95;;;;;;;4.12;87.12;97715.81;5015605;28;20064;-83
2020/12/29 09:34:24;;;;;;;2.10;1.67;;;;;;;4.12;87.24;97715.81;5015314;28;20053;-83
2020/12/29 09:36:51;;;;;;;2.78;1.90;;;;;;;4.09;87.62;97724.69;5022412;28;20049;-82
2020/12/29 09:39:18;;;;;;;3.80;2.10;;;;;;;4.15;87.58;97732.16;5024761;28;20050;-83
2020/12/29 09:41:44;;;;;;;3.35;2.10;;;;;;;4.15;87.25;97745.25;5016128;28;20145;-83
2020/12/29 09:44:10;;;;;;;2.42;1.95;;;;;;;4.23;89.75;97742.19;5015994;28;20137;-83
2020/12/29 09:46:38;;;;;;;3.03;2.13;;;;;;;4.37;89.05;97752.63;5015309;28;20137;-83
2020/12/29 09:49:06;;;;;;;2.28;2.05;;;;;;;4.36;86.64;97758.78;5015695;28;20053;-84
2020/12/29 09:51:33;;;;;;;2.13;1.92;;;;;;;4.35;86.29;97766.75;5015312;28;20132;-83
2020/12/29 09:54:00;;;;;;;4.10;2.10;;;;;;;4.28;86.59;97770.69;5015985;28;20050;-85
2020/12/29 09:56:28;;;;;;;2.10;1.90;;;;;;;4.28;86.55;97778.53;5016181;28;20053;-84
2020/12/29 09:58:54;;;;;;;2.60;1.90;;;;;;;4.19;87.03;97785.22;5015308;28;20049;-81
2020/12/29 10:01:22;;;;;;;2.30;2.10;;;;;;;4.15;87.40;97787.16;5016277;28;20136;-84
2020/12/29 10:03:51;;;;;;;2.65;2.10;;;;;;;4.19;87.20;97788.66;5020269;28;20053;-83
2020/12/29 10:06:18;;;;;;;2.80;2.28;;;;;;;4.30;86.45;97803.69;5021561;28;20100;-84
2020/12/29 10:08:45;;;;;;;4.22;2.53;;;;;;;4.31;86.58;97809.78;5024212;28;20069;-84
2020/12/29 10:11:12;;;;;;;2.63;2.42;;;;;;;4.30;87.37;97797.63;5018819;28;20061;-83
2020/12/29 10:13:38;;;;;;;3.15;2.67;;;;;;;4.41;86.33;97806.47;5030249;28;20086;-82
2020/12/29 10:16:05;;;;;;;2.88;2.60;;;;;;;4.47;86.28;97813.97;5034710;28;20076;-84
2020/12/29 10:18:32;;;;;;;4.07;2.78;;;;;;;4.50;85.98;97811.16;5036522;28;20049;-85
2020/12/29 10:20:58;;;;;;;5.32;3.08;;;;;;;4.50;85.50;97800.66;5037603;28;20045;-85
2020/12/29 10:23:25;;;;;;;2.90;2.50;;;;;;;4.54;85.54;97815.28;5037136;28;20030;-83
2020/12/29 10:25:52;;;;;;;3.58;2.85;;;;;;;4.62;85.72;97819.16;5037745;28;20034;-83
2020/12/29 10:28:19;;;;;;;3.92;2.92;;;;;;;4.56;85.64;97818.59;5038476;28;20069;-83
2020/12/29 10:30:48;;;;;;;3.75;3.25;;;;;;;4.59;86.09;97833.31;5038583;28;20564;-84
2020/12/29 10:33:15;;;;;;;5.03;3.40;;;;;;;4.66;84.54;97836.38;5037213;28;20134;-83
2020/12/29 10:35:43;;;;;;;4.88;3.50;;;;;;;4.64;84.99;97838.25;5034640;28;20046;-83
2020/12/29 10:38:09;;;;;;;4.20;3.17;;;;;;;4.60;84.83;97853.34;5019807;28;20216;-83
2020/12/29 10:40:36;;;;;;;4.93;3.17;;;;;;;4.59;85.13;97852.50;5033772;28;20093;-85
2020/12/29 10:43:02;;;;;;;3.80;3.00;;;;;;;4.64;84.96;97859.22;5037476;28;20046;-85
2020/12/29 10:45:31;;;;;;;3.95;3.08;;;;;;;4.67;84.50;97854.66;5023827;28;20064;-84
2020/12/29 10:47:57;;;;;;;3.45;2.72;;;;;;;4.73;84.43;97869.97;5018706;28;20400;-84
2020/12/29 10:50:24;;;;;;;6.78;3.47;;;;;;;4.79;83.83;97868.75;5018119;28;20061;-84
2020/12/29 10:53:04;;;;;;;4.18;2.80;;;;;;;4.83;84.07;97870.25;5018810;28;20417;-83
2020/12/29 10:55:33;;;;;;;3.10;2.75;;;;;;;4.79;83.46;97847.78;5018063;28;20052;-84
2020/12/29 10:58:00;;;;;;;4.07;2.70;;;;;;;4.85;83.61;97861.34;5018192;28;20374;-85
2020/12/29 11:00:37;;;;;;;3.22;2.70;;;;;;;5.05;82.26;97880.16;5015967;28;20054;-85
2020/12/29 11:03:04;;;;;;;3.80;2.80;;;;;;;5.10;82.83;97885.97;5015696;28;20129;-85
2020/12/29 11:05:30;;;;;;;5.50;2.67;;;;;;;5.17;81.74;97890.75;5017556;28;20054;-85
2020/12/29 11:07:58;;;;;;;3.00;2.60;;;;;;;5.21;81.90;97893.97;5016060;28;20056;-85
2020/12/29 11:10:24;;;;;;;4.32;2.50;;;;;;;5.27;80.82;97901.47;5016598;28;20544;-86
2020/12/29 11:12:51;;;;;;;3.13;2.83;;;;;;;5.24;80.71;97893.78;5014760;28;20054;-85
2020/12/29 11:15:17;;;;;;;3.88;2.40;;;;;;;5.27;81.29;97907.56;5016535;28;20444;-85
2020/12/29 11:17:43;;;;;;;4.35;2.78;;;;;;;5.40;79.94;97914.63;5016367;28;20088;-85
2020/12/29 11:20:10;;;;;;;3.97;2.83;;;;;;;5.46;79.31;97924.72;5018828;28;20061;-85
2020/12/29 11:22:36;;;;;;;3.83;2.70;;;;;;;5.47;79.09;97923.78;5015361;28;20057;-84
2020/12/29 11:25:03;;;;;;;4.43;2.80;;;;;;;5.44;79.49;97916.09;5016447;28;20148;-85
2020/12/29 11:27:30;;;;;;;2.90;2.55;;;;;;;5.52;79.45;97925.16;5017025;28;20078;-85
2020/12/29 11:29:57;;;;;;;5.20;2.83;;;;;;;5.54;80.31;97930.31;5016915;28;20081;-85
2020/12/29 11:32:23;;;;;;;3.72;2.47;;;;;;;5.59;78.93;97939.56;5015995;28;20050;-85
2020/12/29 11:34:50;;;;;;;4.88;2.75;;;;;;;5.52;79.45;97937.44;5015279;28;20053;-85
2020/12/29 11:37:16;;;;;;;3.92;2.63;;;;;;;5.46;79.43;97938.69;5018829;28;20046;-86
2020/12/29 11:39:43;;;;;;;4.20;2.58;;;;;;;5.46;79.11;97937.84;5019865;28;20374;-86
2020/12/29 11:42:10;;;;;;;3.13;2.40;;;;;;;5.39;79.19;97939.19;5017914;28;20053;-83
2020/12/29 11:44:37;;;;;;;2.88;2.30;;;;;;;5.36;79.55;97936.75;5018159;28;20054;-84
2020/12/29 11:47:03;;;;;;;2.97;2.33;;;;;;;5.40;79.37;97944.34;5018237;28;20073;-83
2020/12/29 11:49:30;;;;;;;2.83;2.00;;;;;;;5.36;78.66;97942.00;5017903;28;20077;-84